Garber, Iowa
Current Conditions -  °F | °C
As of 3:35 PM on Saturday 25 Oct 2014 (Local Time) from KPDC Reporting Station
Clear Clear  
Wind Chill: 68°   Ceiling: Unl
Heat Index: 68°   Visibility: 10mi
Dew Point: 26°   Wind: 17mph
Humidity: 21%   Direction: 300°WNW
Pressure: 29.99"   Gusts: 23mph
Location:  42.74°N, 91.26°W
Report Text: KPDC 252035Z AUTO 30015G20KT 10SM CLR 20/M03 A2999 RMK AO2 T02001031
Loading
Personal Weather Stations






























Interactive Weather Map
Tropical Storm Tracking
New forecast layout! Learn more

10-Day Weather Forecast

Advertisements
Track Severe Weather on mobile